Time;durP1;ratioP1;P1;durP2;ratioP2;P2;SDS_P1;SDS_P2;PMS_P1;PMS_P2;Temp;Humidity;BMP_temperature;BMP_pressure;BME280_temperature;BME280_humidity;BME280_pressure;Samples;Min_cycle;Max_cycle;Signal;HPM_P1;HPM_P2
2022/08/02 00:00:09;;;;;;;3.25;2.90;;;;;;;;;;516102;28;845;-85
2022/08/02 00:00:24;;;;;;;3.63;2.95;;;;;;;;;;515843;28;1055;-84
2022/08/02 00:00:40;;;;;;;3.40;2.92;;;;;;;;;;513957;29;1054;-85
2022/08/02 00:00:55;;;;;;;3.23;2.93;;;;;;;;;;514605;28;1059;-83
2022/08/02 00:01:10;;;;;;;3.20;2.90;;;;;;;;;;515814;28;952;-85
2022/08/02 00:01:26;;;;;;;3.17;2.90;;;;;;;;;;515652;28;1135;-83
2022/08/02 00:01:42;;;;;;;3.20;2.90;;;;;;;;;;513129;29;1281;-85
2022/08/02 00:01:58;;;;;;;3.50;2.97;;;;;;;;;;513293;29;1066;-82
2022/08/02 00:02:13;;;;;;;4.47;3.10;;;;;;;;;;512986;29;1012;-83
2022/08/02 00:02:29;;;;;;;4.05;3.08;;;;;;;;;;513641;28;813;-82
2022/08/02 00:02:45;;;;;;;3.97;2.93;;;;;;;;;;515106;28;1330;-84
2022/08/02 00:03:00;;;;;;;4.88;3.08;;;;;;;;;;515373;28;956;-82
2022/08/02 00:03:16;;;;;;;4.05;3.08;;;;;;;;;;515512;28;774;-84
2022/08/02 00:03:31;;;;;;;3.33;2.93;;;;;;;;;;514528;28;1466;-84
2022/08/02 00:03:46;;;;;;;3.60;3.07;;;;;;;;;;515717;28;821;-84
2022/08/02 00:04:02;;;;;;;4.50;3.08;;;;;;;;;;515835;28;867;-83
2022/08/02 00:04:17;;;;;;;4.30;2.93;;;;;;;;;;513697;29;1194;-85
2022/08/02 00:04:33;;;;;;;4.10;3.00;;;;;;;;;;513575;29;955;-83
2022/08/02 00:04:48;;;;;;;4.13;3.07;;;;;;;;;;513796;29;793;-84
2022/08/02 00:05:05;;;;;;;4.28;3.10;;;;;;;;;;514034;29;952;-84
2022/08/02 00:05:20;;;;;;;4.32;3.00;;;;;;;;;;514040;28;1021;-85
2022/08/02 00:05:35;;;;;;;3.90;3.00;;;;;;;;;;515672;28;1007;-84
2022/08/02 00:05:51;;;;;;;4.45;3.00;;;;;;;;;;513933;29;1396;-83
2022/08/02 00:06:06;;;;;;;4.30;3.10;;;;;;;;;;514340;28;1412;-82
2022/08/02 00:06:22;;;;;;;3.50;2.90;;;;;;;;;;515762;28;746;-84
2022/08/02 00:06:37;;;;;;;3.50;2.70;;;;;;;;;;515691;28;1003;-85
2022/08/02 00:06:53;;;;;;;3.50;3.00;;;;;;;;;;515760;28;1054;-84
2022/08/02 00:07:08;;;;;;;3.40;3.10;;;;;;;;;;515864;28;754;-85
2022/08/02 00:07:24;;;;;;;3.60;3.00;;;;;;;;;;515915;28;1058;-84
2022/08/02 00:07:39;;;;;;;3.35;2.88;;;;;;;;;;516258;28;1306;-84
2022/08/02 00:07:54;;;;;;;3.13;2.83;;;;;;;;;;518156;28;1015;-84
2022/08/02 00:08:10;;;;;;;3.55;3.00;;;;;;;;;;517843;28;1102;-84
2022/08/02 00:08:25;;;;;;;3.50;3.10;;;;;;;;;;517827;28;992;-83
2022/08/02 00:08:41;;;;;;;3.60;2.97;;;;;;;;;;518078;28;872;-85
2022/08/02 00:08:56;;;;;;;3.65;2.90;;;;;;;;;;517942;28;1050;-85
2022/08/02 00:09:11;;;;;;;3.30;3.00;;;;;;;;;;515900;28;1153;-84
2022/08/02 00:09:27;;;;;;;3.47;3.10;;;;;;;;;;515991;28;1055;-85
2022/08/02 00:09:43;;;;;;;3.50;2.97;;;;;;;;;;515923;28;1113;-84
2022/08/02 00:09:58;;;;;;;3.83;2.90;;;;;;;;;;515706;28;996;-83
2022/08/02 00:10:14;;;;;;;3.60;3.03;;;;;;;;;;515913;28;1007;-85
2022/08/02 00:10:29;;;;;;;3.20;2.90;;;;;;;;;;515840;28;1126;-83
2022/08/02 00:10:45;;;;;;;2.97;2.70;;;;;;;;;;515659;28;1027;-84
2022/08/02 00:11:00;;;;;;;3.42;2.80;;;;;;;;;;516285;28;1039;-84
2022/08/02 00:11:16;;;;;;;3.40;3.10;;;;;;;;;;518351;28;878;-86
2022/08/02 00:11:31;;;;;;;3.72;3.20;;;;;;;;;;518296;28;817;-85
2022/08/02 00:11:47;;;;;;;4.27;3.10;;;;;;;;;;518322;28;1054;-85
2022/08/02 00:12:03;;;;;;;3.88;3.20;;;;;;;;;;518338;28;986;-85
2022/08/02 00:12:18;;;;;;;4.45;3.25;;;;;;;;;;518057;28;983;-85
2022/08/02 00:12:33;;;;;;;3.73;3.13;;;;;;;;;;517913;28;1343;-85
2022/08/02 00:12:49;;;;;;;3.40;3.10;;;;;;;;;;518084;28;1977;-85
2022/08/02 00:13:04;;;;;;;3.45;3.15;;;;;;;;;;518144;28;1007;-84
2022/08/02 00:13:20;;;;;;;3.40;3.10;;;;;;;;;;518143;28;1051;-85
2022/08/02 00:13:35;;;;;;;3.20;2.90;;;;;;;;;;515928;28;1172;-85
2022/08/02 00:13:51;;;;;;;3.50;2.90;;;;;;;;;;516275;28;1007;-85
2022/08/02 00:14:06;;;;;;;3.75;3.00;;;;;;;;;;516107;28;894;-85
2022/08/02 00:14:22;;;;;;;3.20;2.90;;;;;;;;;;513863;29;1314;-85
2022/08/02 00:14:37;;;;;;;3.67;3.10;;;;;;;;;;514182;29;1011;-85
2022/08/02 00:14:52;;;;;;;3.57;3.20;;;;;;;;;;514122;29;845;-85
2022/08/02 00:15:09;;;;;;;3.37;3.00;;;;;;;;;;514101;29;1083;-85
2022/08/02 00:15:25;;;;;;;3.85;3.00;;;;;;;;;;514777;28;833;-84
2022/08/02 00:15:40;;;;;;;3.45;2.97;;;;;;;;;;515829;28;944;-83
2022/08/02 00:15:56;;;;;;;3.50;3.00;;;;;;;;;;515930;28;1019;-84
2022/08/02 00:16:12;;;;;;;3.53;2.95;;;;;;;;;;516368;28;1019;-84
2022/08/02 00:16:27;;;;;;;3.17;2.88;;;;;;;;;;518356;28;1086;-84
2022/08/02 00:16:43;;;;;;;3.20;2.90;;;;;;;;;;518456;28;916;-85
2022/08/02 00:16:58;;;;;;;3.30;3.00;;;;;;;;;;518202;28;1054;-85
2022/08/02 00:17:13;;;;;;;3.60;3.03;;;;;;;;;;518309;28;1129;-85
2022/08/02 00:17:29;;;;;;;3.50;3.00;;;;;;;;;;518238;28;1047;-84
2022/08/02 00:17:44;;;;;;;3.60;2.95;;;;;;;;;;518136;28;991;-85
2022/08/02 00:18:00;;;;;;;3.50;2.83;;;;;;;;;;518022;28;868;-85
2022/08/02 00:18:15;;;;;;;3.20;2.90;;;;;;;;;;517993;28;904;-84
2022/08/02 00:18:31;;;;;;;3.40;3.10;;;;;;;;;;518090;28;1066;-85
2022/08/02 00:18:46;;;;;;;3.42;3.00;;;;;;;;;;518289;28;1035;-85
2022/08/02 00:19:02;;;;;;;3.60;2.90;;;;;;;;;;518645;28;907;-84
2022/08/02 00:19:17;;;;;;;3.78;3.00;;;;;;;;;;518113;28;968;-83
2022/08/02 00:19:33;;;;;;;4.27;3.13;;;;;;;;;;515998;28;1019;-84
2022/08/02 00:19:48;;;;;;;4.10;3.03;;;;;;;;;;515889;28;1086;-84
2022/08/02 00:20:04;;;;;;;3.30;3.00;;;;;;;;;;516111;28;1019;-85
2022/08/02 00:20:20;;;;;;;3.42;3.13;;;;;;;;;;516302;28;1055;-85
2022/08/02 00:20:35;;;;;;;4.20;3.10;;;;;;;;;;513900;29;1365;-85
2022/08/02 00:20:51;;;;;;;5.23;2.93;;;;;;;;;;514278;29;1031;-85
2022/08/02 00:21:06;;;;;;;4.73;3.13;;;;;;;;;;514071;29;1066;-85
2022/08/02 00:21:22;;;;;;;5.03;3.40;;;;;;;;;;514374;28;1019;-85
2022/08/02 00:21:37;;;;;;;4.60;3.20;;;;;;;;;;516110;28;1024;-85
2022/08/02 00:21:53;;;;;;;4.40;3.08;;;;;;;;;;515882;28;943;-84
2022/08/02 00:22:08;;;;;;;4.80;3.10;;;;;;;;;;515946;28;828;-84
2022/08/02 00:22:24;;;;;;;4.32;3.05;;;;;;;;;;516314;28;1094;-84
2022/08/02 00:22:39;;;;;;;3.70;2.90;;;;;;;;;;518107;28;1267;-84
2022/08/02 00:22:54;;;;;;;3.15;2.90;;;;;;;;;;518331;28;889;-84
2022/08/02 00:23:10;;;;;;;3.47;3.17;;;;;;;;;;518213;28;1019;-84
2022/08/02 00:23:25;;;;;;;3.80;3.40;;;;;;;;;;515911;28;976;-84
2022/08/02 00:23:41;;;;;;;3.70;3.33;;;;;;;;;;516154;28;1075;-85
2022/08/02 00:23:56;;;;;;;3.30;3.00;;;;;;;;;;516240;28;845;-85
2022/08/02 00:24:11;;;;;;;3.38;3.08;;;;;;;;;;516335;28;1066;-85
2022/08/02 00:24:28;;;;;;;4.00;3.20;;;;;;;;;;516123;28;1007;-84
2022/08/02 00:24:43;;;;;;;3.95;3.20;;;;;;;;;;515942;28;1011;-85
2022/08/02 00:24:58;;;;;;;3.47;3.17;;;;;;;;;;515997;28;916;-85
2022/08/02 00:25:14;;;;;;;3.40;3.10;;;;;;;;;;516766;28;995;-84
2022/08/02 00:25:29;;;;;;;3.20;2.90;;;;;;;;;;518303;28;951;-85
2022/08/02 00:25:45;;;;;;;3.20;2.90;;;;;;;;;;515961;28;1434;-85
2022/08/02 00:26:00;;;;;;;3.40;3.10;;;;;;;;;;516007;28;1039;-85
2022/08/02 00:26:15;;;;;;;3.78;3.25;;;;;;;;;;516290;28;1165;-85
2022/08/02 00:26:31;;;;;;;4.40;3.17;;;;;;;;;;516179;28;1082;-85
2022/08/02 00:26:46;;;;;;;3.80;3.13;;;;;;;;;;514202;29;1210;-85
2022/08/02 00:27:02;;;;;;;3.50;3.20;;;;;;;;;;514404;29;1162;-85
2022/08/02 00:27:18;;;;;;;3.50;3.20;;;;;;;;;;514207;29;845;-85
2022/08/02 00:27:33;;;;;;;3.53;3.23;;;;;;;;;;514361;28;984;-85
2022/08/02 00:27:48;;;;;;;3.40;3.10;;;;;;;;;;514205;29;1337;-85
2022/08/02 00:28:04;;;;;;;3.30;3.00;;;;;;;;;;512261;29;1182;-85
2022/08/02 00:28:19;;;;;;;3.63;3.10;;;;;;;;;;512066;29;1086;-85
2022/08/02 00:28:35;;;;;;;4.30;3.20;;;;;;;;;;512218;29;1063;-84
2022/08/02 00:28:50;;;;;;;3.53;3.07;;;;;;;;;;513793;29;1202;-85
2022/08/02 00:29:06;;;;;;;3.42;3.00;;;;;;;;;;513932;29;794;-85
2022/08/02 00:29:21;;;;;;;3.63;2.93;;;;;;;;;;513919;29;1063;-84
2022/08/02 00:29:36;;;;;;;3.53;3.07;;;;;;;;;;514034;29;1051;-85
2022/08/02 00:29:52;;;;;;;4.97;3.22;;;;;;;;;;514031;28;1027;-83
2022/08/02 00:30:08;;;;;;;4.77;3.20;;;;;;;;;;515932;28;1059;-85
2022/08/02 00:30:23;;;;;;;3.53;3.22;;;;;;;;;;516066;28;1087;-83
2022/08/02 00:30:38;;;;;;;3.60;3.30;;;;;;;;;;516198;28;944;-85
2022/08/02 00:30:56;;;;;;;3.60;3.30;;;;;;;;;;518054;28;1050;-85
2022/08/02 00:31:11;;;;;;;3.60;3.30;;;;;;;;;;518013;28;1047;-85
2022/08/02 00:31:26;;;;;;;3.50;3.20;;;;;;;;;;515930;28;1314;-85
2022/08/02 00:31:42;;;;;;;3.40;3.10;;;;;;;;;;516173;28;1070;-85
2022/08/02 00:31:57;;;;;;;3.50;3.20;;;;;;;;;;516071;28;1027;-85
2022/08/02 00:32:13;;;;;;;3.40;3.10;;;;;;;;;;516203;28;1304;-85
2022/08/02 00:32:28;;;;;;;3.37;3.07;;;;;;;;;;515903;28;805;-85
2022/08/02 00:32:43;;;;;;;3.63;3.33;;;;;;;;;;513780;29;1891;-85
2022/08/02 00:33:01;;;;;;;4.95;3.47;;;;;;;;;;514044;29;1079;-85
2022/08/02 00:33:16;;;;;;;6.68;3.53;;;;;;;;;;514280;28;786;-85
2022/08/02 00:33:32;;;;;;;4.65;3.42;;;;;;;;;;515937;28;904;-85
2022/08/02 00:33:47;;;;;;;5.63;3.40;;;;;;;;;;516035;28;1047;-85
2022/08/02 00:34:02;;;;;;;6.17;3.40;;;;;;;;;;513925;29;1163;-85
2022/08/02 00:34:18;;;;;;;3.92;3.20;;;;;;;;;;514035;29;952;-85
2022/08/02 00:34:33;;;;;;;3.30;3.00;;;;;;;;;;514722;28;983;-85
2022/08/02 00:34:49;;;;;;;3.90;3.10;;;;;;;;;;516571;28;972;-85
2022/08/02 00:35:05;;;;;;;4.88;3.20;;;;;;;;;;515962;28;1106;-85
2022/08/02 00:35:21;;;;;;;4.05;3.10;;;;;;;;;;516348;28;1059;-85
2022/08/02 00:35:36;;;;;;;3.53;3.20;;;;;;;;;;514049;29;1058;-85
2022/08/02 00:35:52;;;;;;;3.60;3.20;;;;;;;;;;514703;28;1043;-85
2022/08/02 00:36:08;;;;;;;3.67;3.07;;;;;;;;;;516048;28;975;-85
2022/08/02 00:36:23;;;;;;;4.32;3.20;;;;;;;;;;516107;28;908;-84
2022/08/02 00:36:38;;;;;;;3.73;3.07;;;;;;;;;;513806;29;1319;-85
2022/08/02 00:36:54;;;;;;;3.20;2.90;;;;;;;;;;513921;29;1125;-84
2022/08/02 00:37:09;;;;;;;3.57;3.10;;;;;;;;;;514134;29;857;-85
2022/08/02 00:37:25;;;;;;;3.80;3.10;;;;;;;;;;514600;28;1153;-85
2022/08/02 00:37:41;;;;;;;4.03;3.10;;;;;;;;;;516329;28;1043;-85
2022/08/02 00:37:57;;;;;;;5.53;3.25;;;;;;;;;;516107;28;1040;-85
2022/08/02 00:38:13;;;;;;;5.38;3.10;;;;;;;;;;516150;28;841;-85
2022/08/02 00:38:28;;;;;;;3.72;2.97;;;;;;;;;;514789;28;1418;-85
2022/08/02 00:38:45;;;;;;;3.80;3.10;;;;;;;;;;515761;28;1099;-85
2022/08/02 00:39:00;;;;;;;3.50;3.20;;;;;;;;;;516259;28;900;-85
2022/08/02 00:39:16;;;;;;;4.80;3.20;;;;;;;;;;515924;28;860;-85
2022/08/02 00:39:31;;;;;;;4.78;3.15;;;;;;;;;;516286;28;996;-83
2022/08/02 00:39:47;;;;;;;3.83;3.17;;;;;;;;;;514103;29;1189;-85
2022/08/02 00:40:03;;;;;;;3.80;3.33;;;;;;;;;;514191;29;900;-85
2022/08/02 00:40:22;;;;;;;4.40;3.30;;;;;;;;;;514017;29;829;-85
2022/08/02 00:40:37;;;;;;;4.45;3.33;;;;;;;;;;514134;29;806;-85
2022/08/02 00:40:53;;;;;;;3.77;3.27;;;;;;;;;;512138;29;1192;-85
2022/08/02 00:41:17;;;;;;;4.00;3.25;;;;;;;;;;512145;29;822;-85
2022/08/02 00:41:32;;;;;;;3.90;3.50;;;;;;;;;;512162;29;924;-85
2022/08/02 00:41:51;;;;;;;3.83;3.30;;;;;;;;;;513952;29;1150;-85
2022/08/02 00:42:06;;;;;;;4.22;3.20;;;;;;;;;;514022;29;1321;-85
2022/08/02 00:42:22;;;;;;;3.63;3.17;;;;;;;;;;512050;29;979;-85
2022/08/02 00:42:38;;;;;;;3.40;3.10;;;;;;;;;;511899;29;1374;-85
2022/08/02 00:43:10;;;;;;;3.40;3.10;;;;;;;;;;513979;29;1051;-85
2022/08/02 00:43:25;;;;;;;3.60;3.30;;;;;;;;;;513863;29;1059;-85
2022/08/02 00:43:42;;;;;;;3.57;3.27;;;;;;;;;;513830;29;1074;-85
2022/08/02 00:43:57;;;;;;;3.63;3.10;;;;;;;;;;514560;28;1107;-84
2022/08/02 00:44:18;;;;;;;3.87;3.10;;;;;;;;;;516668;28;1004;-85
2022/08/02 00:44:33;;;;;;;3.70;3.40;;;;;;;;;;518091;28;1039;-85
2022/08/02 00:44:49;;;;;;;3.53;3.23;;;;;;;;;;518185;28;950;-86
2022/08/02 00:45:05;;;;;;;5.00;3.28;;;;;;;;;;518170;28;1047;-85
2022/08/02 00:45:20;;;;;;;5.15;3.30;;;;;;;;;;518243;28;1003;-85
2022/08/02 00:45:38;;;;;;;3.80;3.40;;;;;;;;;;517725;28;880;-85
2022/08/02 00:45:54;;;;;;;3.67;3.35;;;;;;;;;;517946;28;1051;-85
2022/08/02 00:46:09;;;;;;;3.60;3.30;;;;;;;;;;518038;28;830;-83
2022/08/02 00:46:25;;;;;;;3.63;3.33;;;;;;;;;;517729;28;996;-84
2022/08/02 00:46:40;;;;;;;3.80;3.30;;;;;;;;;;518309;28;1117;-85
2022/08/02 00:46:56;;;;;;;4.33;3.30;;;;;;;;;;516029;28;1176;-85
2022/08/02 00:47:11;;;;;;;3.65;3.05;;;;;;;;;;515721;28;1094;-85
2022/08/02 00:47:27;;;;;;;3.40;3.10;;;;;;;;;;515876;28;1113;-84
2022/08/02 00:47:42;;;;;;;3.50;3.20;;;;;;;;;;515949;28;1073;-85
2022/08/02 00:47:57;;;;;;;4.43;3.33;;;;;;;;;;513907;29;1179;-85
2022/08/02 00:48:13;;;;;;;4.40;3.40;;;;;;;;;;513938;29;818;-85
2022/08/02 00:48:29;;;;;;;3.63;3.33;;;;;;;;;;513783;29;1253;-85
2022/08/02 00:48:45;;;;;;;3.70;3.40;;;;;;;;;;514207;28;1024;-85
2022/08/02 00:49:01;;;;;;;4.40;3.60;;;;;;;;;;516136;28;1203;-85
2022/08/02 00:49:16;;;;;;;5.27;3.60;;;;;;;;;;516085;28;853;-85
2022/08/02 00:49:31;;;;;;;4.70;3.55;;;;;;;;;;516213;28;1175;-86
2022/08/02 00:49:47;;;;;;;4.87;3.57;;;;;;;;;;516065;28;809;-85
2022/08/02 00:50:03;;;;;;;5.28;3.50;;;;;;;;;;516080;28;1015;-85
2022/08/02 00:50:18;;;;;;;4.80;3.40;;;;;;;;;;516581;28;1109;-85
2022/08/02 00:50:35;;;;;;;4.10;3.30;;;;;;;;;;515726;28;1194;-84
2022/08/02 00:50:50;;;;;;;3.70;3.30;;;;;;;;;;515622;28;975;-84
2022/08/02 00:51:06;;;;;;;3.83;3.43;;;;;;;;;;514097;29;1420;-84
2022/08/02 00:51:21;;;;;;;3.65;3.35;;;;;;;;;;514074;29;1127;-85
2022/08/02 00:51:37;;;;;;;3.80;3.50;;;;;;;;;;513885;29;903;-85
2022/08/02 00:51:52;;;;;;;4.80;3.70;;;;;;;;;;514190;29;940;-83
2022/08/02 00:52:08;;;;;;;4.20;3.63;;;;;;;;;;512165;29;1139;-85
2022/08/02 00:52:23;;;;;;;4.00;3.58;;;;;;;;;;512651;29;873;-85
2022/08/02 00:52:39;;;;;;;3.77;3.40;;;;;;;;;;513817;29;1903;-85
2022/08/02 00:52:56;;;;;;;3.83;3.47;;;;;;;;;;516467;28;825;-85
2022/08/02 00:53:12;;;;;;;3.72;3.42;;;;;;;;;;518132;28;1031;-85
2022/08/02 00:53:27;;;;;;;3.78;3.35;;;;;;;;;;518110;28;1402;-84
2022/08/02 00:53:42;;;;;;;4.03;3.40;;;;;;;;;;517891;28;865;-85
2022/08/02 00:53:58;;;;;;;3.73;3.43;;;;;;;;;;517741;28;1030;-85
2022/08/02 00:54:14;;;;;;;4.13;3.55;;;;;;;;;;517918;28;1039;-85
2022/08/02 00:54:29;;;;;;;4.20;3.50;;;;;;;;;;517921;28;860;-85
2022/08/02 00:54:44;;;;;;;3.85;3.50;;;;;;;;;;517957;28;1026;-85
2022/08/02 00:55:00;;;;;;;4.03;3.63;;;;;;;;;;518215;28;931;-85
2022/08/02 00:55:15;;;;;;;4.95;3.85;;;;;;;;;;515714;28;1182;-85
2022/08/02 00:55:31;;;;;;;4.50;3.73;;;;;;;;;;514332;29;1007;-85
2022/08/02 00:55:47;;;;;;;3.97;3.60;;;;;;;;;;515784;28;1332;-84
2022/08/02 00:56:02;;;;;;;4.07;3.70;;;;;;;;;;515929;28;999;-85
2022/08/02 00:56:18;;;;;;;4.10;3.70;;;;;;;;;;516094;28;853;-85
2022/08/02 00:56:34;;;;;;;4.03;3.63;;;;;;;;;;514083;28;1201;-85
2022/08/02 00:56:49;;;;;;;4.80;3.60;;;;;;;;;;514100;29;1047;-84
2022/08/02 00:57:04;;;;;;;4.80;3.60;;;;;;;;;;514523;28;1051;-85
2022/08/02 00:57:20;;;;;;;3.90;3.50;;;;;;;;;;515874;28;1110;-85
2022/08/02 00:57:35;;;;;;;3.90;3.50;;;;;;;;;;515909;28;1069;-85
2022/08/02 00:57:51;;;;;;;4.03;3.40;;;;;;;;;;516033;28;1142;-85
2022/08/02 00:58:07;;;;;;;4.55;3.60;;;;;;;;;;515709;28;1050;-85
2022/08/02 00:58:22;;;;;;;5.30;3.70;;;;;;;;;;513977;28;1193;-85
2022/08/02 00:58:38;;;;;;;4.40;3.70;;;;;;;;;;515741;28;1070;-85
2022/08/02 00:58:53;;;;;;;4.20;3.80;;;;;;;;;;515950;28;887;-85
2022/08/02 00:59:09;;;;;;;4.45;3.70;;;;;;;;;;513896;28;1143;-84
2022/08/02 00:59:24;;;;;;;4.00;3.50;;;;;;;;;;514050;29;992;-85
2022/08/02 00:59:40;;;;;;;3.88;3.50;;;;;;;;;;514128;29;920;-85
2022/08/02 00:59:56;;;;;;;3.92;3.53;;;;;;;;;;513823;29;1002;-85
2022/08/02 01:00:12;;;;;;;3.92;3.63;;;;;;;;;;514351;28;1126;-84
2022/08/02 01:00:28;;;;;;;4.07;3.67;;;;;;;;;;515770;28;1038;-85
2022/08/02 01:00:43;;;;;;;3.90;3.60;;;;;;;;;;515867;28;892;-84
2022/08/02 01:01:00;;;;;;;3.80;3.45;;;;;;;;;;516761;28;990;-85
2022/08/02 01:01:16;;;;;;;4.43;3.47;;;;;;;;;;517744;28;915;-85
2022/08/02 01:01:37;;;;;;;4.47;3.70;;;;;;;;;;518211;28;1069;-85
2022/08/02 01:01:54;;;;;;;4.00;3.70;;;;;;;;;;518264;28;951;-85
2022/08/02 01:02:09;;;;;;;4.45;3.78;;;;;;;;;;515990;28;1305;-84
2022/08/02 01:02:25;;;;;;;4.27;3.57;;;;;;;;;;516109;28;860;-85
2022/08/02 01:02:41;;;;;;;3.97;3.57;;;;;;;;;;513690;29;1427;-84
2022/08/02 01:02:56;;;;;;;4.18;3.58;;;;;;;;;;513950;29;995;-85
2022/08/02 01:03:11;;;;;;;4.07;3.40;;;;;;;;;;513935;29;1066;-85
2022/08/02 01:03:27;;;;;;;3.77;3.47;;;;;;;;;;514403;29;1054;-84
2022/08/02 01:03:43;;;;;;;4.03;3.67;;;;;;;;;;514012;29;845;-85
2022/08/02 01:03:59;;;;;;;4.10;3.70;;;;;;;;;;514419;28;920;-85
2022/08/02 01:04:14;;;;;;;3.90;3.50;;;;;;;;;;515802;28;927;-85
2022/08/02 01:04:29;;;;;;;3.70;3.40;;;;;;;;;;516340;28;1099;-85
2022/08/02 01:04:45;;;;;;;3.97;3.58;;;;;;;;;;518179;28;1069;-85
2022/08/02 01:05:00;;;;;;;5.17;3.70;;;;;;;;;;518174;28;927;-85
2022/08/02 01:05:16;;;;;;;5.03;3.72;;;;;;;;;;518243;28;1026;-85
2022/08/02 01:05:31;;;;;;;4.20;3.60;;;;;;;;;;518138;28;1018;-85
2022/08/02 01:05:47;;;;;;;4.45;3.58;;;;;;;;;;518096;28;1050;-85
2022/08/02 01:06:02;;;;;;;4.33;3.70;;;;;;;;;;518200;28;896;-85
2022/08/02 01:06:17;;;;;;;3.93;3.53;;;;;;;;;;517753;28;1234;-84
2022/08/02 01:06:33;;;;;;;4.30;3.70;;;;;;;;;;517797;28;1125;-85
2022/08/02 01:06:48;;;;;;;4.43;3.70;;;;;;;;;;517943;28;860;-85
2022/08/02 01:07:04;;;;;;;3.97;3.60;;;;;;;;;;518239;28;1065;-85
2022/08/02 01:07:19;;;;;;;4.30;3.67;;;;;;;;;;517990;28;1176;-84
2022/08/02 01:07:35;;;;;;;4.57;3.78;;;;;;;;;;518015;28;995;-85
2022/08/02 01:07:51;;;;;;;4.10;3.70;;;;;;;;;;518106;28;1014;-85
2022/08/02 01:08:06;;;;;;;4.53;3.93;;;;;;;;;;518170;28;861;-84
2022/08/02 01:08:22;;;;;;;4.55;4.05;;;;;;;;;;518235;28;1007;-85
2022/08/02 01:08:38;;;;;;;4.20;3.83;;;;;;;;;;516004;28;1272;-85
2022/08/02 01:08:54;;;;;;;4.00;3.70;;;;;;;;;;516122;28;829;-85
2022/08/02 01:09:09;;;;;;;3.90;3.60;;;;;;;;;;516095;28;999;-85
2022/08/02 01:09:25;;;;;;;4.10;3.70;;;;;;;;;;516042;28;861;-85
2022/08/02 01:09:42;;;;;;;4.00;3.60;;;;;;;;;;516065;28;944;-85
2022/08/02 01:09:57;;;;;;;3.90;3.60;;;;;;;;;;515824;28;1091;-85
2022/08/02 01:10:13;;;;;;;3.87;3.57;;;;;;;;;;515732;28;916;-85
2022/08/02 01:10:28;;;;;;;4.07;3.67;;;;;;;;;;516562;28;916;-85
2022/08/02 01:10:44;;;;;;;4.10;3.70;;;;;;;;;;517979;28;1062;-84
2022/08/02 01:10:59;;;;;;;4.00;3.60;;;;;;;;;;517789;28;920;-85
2022/08/02 01:11:15;;;;;;;4.07;3.67;;;;;;;;;;517955;28;1058;-85
2022/08/02 01:11:31;;;;;;;4.15;3.67;;;;;;;;;;517784;28;1063;-85
2022/08/02 01:11:46;;;;;;;4.13;3.70;;;;;;;;;;517932;28;1027;-85
2022/08/02 01:12:02;;;;;;;3.92;3.60;;;;;;;;;;518012;28;1015;-85
2022/08/02 01:12:17;;;;;;;3.90;3.60;;;;;;;;;;518316;28;1042;-85
2022/08/02 01:12:33;;;;;;;4.13;3.73;;;;;;;;;;518268;28;1308;-84
2022/08/02 01:12:49;;;;;;;5.13;3.83;;;;;;;;;;518060;28;1952;-85
2022/08/02 01:13:04;;;;;;;5.28;3.80;;;;;;;;;;518160;28;805;-85
2022/08/02 01:13:20;;;;;;;4.60;3.80;;;;;;;;;;515909;28;1355;-85
2022/08/02 01:13:36;;;;;;;4.65;3.80;;;;;;;;;;515911;28;1027;-85
2022/08/02 01:13:51;;;;;;;4.20;3.80;;;;;;;;;;516047;28;992;-84
2022/08/02 01:14:12;;;;;;;4.03;3.67;;;;;;;;;;516041;28;1039;-85
2022/08/02 01:14:28;;;;;;;3.80;3.50;;;;;;;;;;516042;28;888;-85
2022/08/02 01:14:48;;;;;;;4.07;3.77;;;;;;;;;;516007;28;864;-85
2022/08/02 01:15:07;;;;;;;4.13;3.80;;;;;;;;;;516010;28;856;-85
2022/08/02 01:15:23;;;;;;;4.05;3.65;;;;;;;;;;518103;28;1050;-85
2022/08/02 01:15:46;;;;;;;4.25;3.70;;;;;;;;;;518127;28;841;-85
2022/08/02 01:16:13;;;;;;;4.25;3.60;;;;;;;;;;518155;28;1046;-85
2022/08/02 01:16:35;;;;;;;4.57;3.83;;;;;;;;;;518348;28;857;-84
2022/08/02 01:17:11;;;;;;;4.20;3.80;;;;;;;;;;517872;28;935;-83
2022/08/02 01:17:41;;;;;;;5.22;4.00;;;;;;;;;;517896;28;1051;-84
2022/08/02 01:18:31;;;;;;;4.07;3.72;;;;;;;;;;517886;28;991;-85
2022/08/02 01:18:53;;;;;;;4.38;3.97;;;;;;;;;;511852;29;1114;-85
2022/08/02 01:19:50;;;;;;;4.45;4.00;;;;;;;;;;511943;29;1651;-85
2022/08/02 01:20:24;;;;;;;3.88;3.58;;;;;;;;;;509573;29;1046;-85
2022/08/02 01:21:02;;;;;;;4.25;3.85;;;;;;;;;;509624;29;936;-85
2022/08/02 01:21:25;;;;;;;4.07;3.67;;;;;;;;;;511769;29;984;-85
2022/08/02 01:22:15;;;;;;;4.30;3.90;;;;;;;;;;514139;28;2096;-85
2022/08/02 01:22:55;;;;;;;4.07;3.65;;;;;;;;;;515984;28;1094;-85
2022/08/02 01:23:22;;;;;;;4.05;3.65;;;;;;;;;;516100;28;888;-85
2022/08/02 01:23:47;;;;;;;4.00;3.70;;;;;;;;;;516968;28;1023;-85
2022/08/02 01:24:23;;;;;;;4.97;4.05;;;;;;;;;;517919;28;998;-85
2022/08/02 01:25:00;;;;;;;4.82;3.75;;;;;;;;;;518182;28;999;-84
2022/08/02 01:25:33;;;;;;;4.53;3.75;;;;;;;;;;517882;28;1086;-85
2022/08/02 01:25:58;;;;;;;3.97;3.67;;;;;;;;;;517831;28;2637;-85
2022/08/02 01:26:34;;;;;;;4.00;3.60;;;;;;;;;;517874;28;900;-85
2022/08/02 01:26:57;;;;;;;4.00;3.67;;;;;;;;;;518245;28;1027;-84
2022/08/02 01:27:31;;;;;;;4.15;3.75;;;;;;;;;;515432;28;995;-83
2022/08/02 01:28:01;;;;;;;5.55;3.95;;;;;;;;;;512772;28;980;-86
2022/08/02 01:28:22;;;;;;;3.85;3.55;;;;;;;;;;509678;29;1075;-87
2022/08/02 01:28:42;;;;;;;4.28;3.80;;;;;;;;;;509361;29;1485;-87
2022/08/02 01:29:04;;;;;;;3.92;3.63;;;;;;;;;;509439;29;1365;-86
2022/08/02 01:29:30;;;;;;;4.10;3.70;;;;;;;;;;511364;29;790;-87
2022/08/02 01:29:50;;;;;;;3.97;3.67;;;;;;;;;;511328;29;1354;-87
2022/08/02 01:30:06;;;;;;;3.80;3.50;;;;;;;;;;511758;28;1229;-87
2022/08/02 01:30:22;;;;;;;3.70;3.40;;;;;;;;;;511628;29;1235;-87
2022/08/02 01:30:40;;;;;;;3.93;3.63;;;;;;;;;;511915;29;861;-87
2022/08/02 01:31:27;;;;;;;4.93;4.00;;;;;;;;;;510641;29;1793;-87
2022/08/02 01:31:49;;;;;;;4.10;3.60;;;;;;;;;;507485;29;1066;-87
2022/08/02 01:32:13;;;;;;;4.53;3.50;;;;;;;;;;507120;29;1453;-87
2022/08/02 01:32:35;;;;;;;3.70;3.35;;;;;;;;;;509725;29;1425;-87
2022/08/02 01:32:56;;;;;;;3.80;3.50;;;;;;;;;;508087;29;1927;-87
2022/08/02 01:33:16;;;;;;;4.07;3.67;;;;;;;;;;510296;29;1502;-87
2022/08/02 01:33:40;;;;;;;4.88;3.70;;;;;;;;;;511362;29;1478;-87
2022/08/02 01:33:58;;;;;;;5.15;3.90;;;;;;;;;;509846;29;1386;-87
2022/08/02 01:34:41;;;;;;;4.88;3.88;;;;;;;;;;509815;29;1852;-87
2022/08/02 01:35:10;;;;;;;4.97;3.75;;;;;;;;;;510365;29;1059;-87
2022/08/02 01:35:32;;;;;;;4.28;3.80;;;;;;;;;;512551;28;1020;-87
2022/08/02 01:35:55;;;;;;;4.50;3.90;;;;;;;;;;512810;28;908;-87
2022/08/02 01:36:12;;;;;;;4.43;3.70;;;;;;;;;;510519;29;860;-87
2022/08/02 01:36:37;;;;;;;4.13;3.83;;;;;;;;;;509764;29;1344;-87
2022/08/02 01:37:13;;;;;;;4.13;3.80;;;;;;;;;;507756;29;1218;-87
2022/08/02 01:37:36;;;;;;;4.03;3.72;;;;;;;;;;509979;29;1118;-86
2022/08/02 01:38:06;;;;;;;3.90;3.60;;;;;;;;;;512129;29;1118;-87
2022/08/02 01:38:28;;;;;;;5.50;3.97;;;;;;;;;;511569;29;866;-86
2022/08/02 01:38:49;;;;;;;4.30;3.90;;;;;;;;;;510199;29;1314;-87
2022/08/02 01:39:08;;;;;;;4.35;3.95;;;;;;;;;;509256;29;1459;-87
2022/08/02 01:39:29;;;;;;;4.30;3.90;;;;;;;;;;508736;29;1851;-87
2022/08/02 01:39:49;;;;;;;4.20;3.80;;;;;;;;;;509909;29;1219;-87
2022/08/02 01:40:11;;;;;;;4.53;3.90;;;;;;;;;;509988;29;1047;-87
2022/08/02 01:40:30;;;;;;;4.32;3.80;;;;;;;;;;510255;29;1338;-86
2022/08/02 01:40:46;;;;;;;5.07;3.88;;;;;;;;;;511989;29;880;-86
2022/08/02 01:41:04;;;;;;;4.05;3.70;;;;;;;;;;513636;28;1370;-86
2022/08/02 01:41:22;;;;;;;3.90;3.60;;;;;;;;;;514004;28;1347;-87
2022/08/02 01:41:40;;;;;;;4.00;3.60;;;;;;;;;;513703;28;1291;-87
2022/08/02 01:41:57;;;;;;;4.07;3.65;;;;;;;;;;513776;28;1235;-87
2022/08/02 01:42:14;;;;;;;4.20;3.80;;;;;;;;;;513816;28;860;-87
2022/08/02 01:42:31;;;;;;;4.10;3.80;;;;;;;;;;509879;29;907;-87
2022/08/02 01:42:50;;;;;;;4.00;3.70;;;;;;;;;;507675;29;1252;-87
2022/08/02 01:43:06;;;;;;;4.15;3.85;;;;;;;;;;512292;28;1370;-87
2022/08/02 01:43:23;;;;;;;4.18;3.83;;;;;;;;;;510072;29;1275;-87
2022/08/02 01:43:41;;;;;;;4.50;3.65;;;;;;;;;;508205;29;1266;-87
2022/08/02 01:43:59;;;;;;;4.30;3.90;;;;;;;;;;510009;29;1336;-86
2022/08/02 01:44:15;;;;;;;4.50;4.10;;;;;;;;;;510142;29;1003;-87
2022/08/02 01:44:33;;;;;;;4.85;4.20;;;;;;;;;;510004;29;1247;-87
2022/08/02 01:44:52;;;;;;;4.53;4.05;;;;;;;;;;510862;29;901;-86
2022/08/02 01:45:10;;;;;;;4.22;3.67;;;;;;;;;;507903;29;1238;-86
2022/08/02 01:45:29;;;;;;;4.40;3.60;;;;;;;;;;508162;29;1485;-87
2022/08/02 01:45:46;;;;;;;4.80;3.80;;;;;;;;;;511935;29;870;-87
2022/08/02 01:46:04;;;;;;;4.95;3.90;;;;;;;;;;511941;29;1020;-87
2022/08/02 01:46:20;;;;;;;4.30;3.90;;;;;;;;;;509920;29;1598;-86
2022/08/02 01:46:39;;;;;;;4.55;4.03;;;;;;;;;;509830;29;1704;-87
2022/08/02 01:46:59;;;;;;;4.30;3.85;;;;;;;;;;509992;29;1493;-87
2022/08/02 01:47:30;;;;;;;4.00;3.60;;;;;;;;;;512514;28;922;-87
2022/08/02 01:47:46;;;;;;;4.13;3.80;;;;;;;;;;513941;28;947;-87
2022/08/02 01:48:04;;;;;;;4.63;3.90;;;;;;;;;;513749;28;790;-87
2022/08/02 01:48:22;;;;;;;4.90;3.88;;;;;;;;;;511843;29;1198;-87
2022/08/02 01:48:40;;;;;;;4.20;3.80;;;;;;;;;;511791;29;1197;-87
2022/08/02 01:48:57;;;;;;;4.05;3.70;;;;;;;;;;511704;29;1218;-87
2022/08/02 01:49:18;;;;;;;4.22;3.88;;;;;;;;;;511822;29;1441;-87
2022/08/02 01:49:36;;;;;;;4.38;3.90;;;;;;;;;;511905;29;1358;-87
2022/08/02 01:49:56;;;;;;;4.10;3.70;;;;;;;;;;510101;29;960;-87